Graceton, Texas
Current Conditions -  °F | °C
As of 5:55 AM on Friday 19 Dec 2014 (Local Time) from KOSA Reporting Station
Overcast Overcast  
Wind Chill: 41°   Ceiling: 300
Heat Index: 45°   Visibility: 4mi
Dew Point: 45°   Wind: 7mph
Humidity: 99%   Direction: 350°N
Pressure: 30.19"   Gusts: NA
Location:  32.7353°N, 94.9492°W
Report Text: KOSA 191155Z AUTO 35006KT 4SM OVC003 07/07 A3019 RMK AO1 T00720070 10080 20072
Loading
Personal Weather Stations






























Interactive Weather Map New forecast layout! Learn more

10-Day Weather Forecast

Advertisements
Track Severe Weather on mobile